sensor_id;sensor_type;location;lat;lon;timestamp;temperature;humidity
63960;DHT22;50136;51.374;0.096;2022-08-04T00:06:59;20.60;99.90
63960;DHT22;50136;51.374;0.096;2022-08-04T00:17:06;20.50;99.90
63960;DHT22;50136;51.374;0.096;2022-08-04T00:27:08;20.30;99.90
63960;DHT22;50136;51.374;0.096;2022-08-04T00:37:14;20.20;99.90
63960;DHT22;50136;51.374;0.096;2022-08-04T00:47:28;20.20;99.90
63960;DHT22;50136;51.374;0.096;2022-08-04T00:57:50;20.20;99.90
63960;DHT22;50136;51.374;0.096;2022-08-04T01:08:15;20.20;99.90
63960;DHT22;50136;51.374;0.096;2022-08-04T01:18:29;20.20;99.90
63960;DHT22;50136;51.374;0.096;2022-08-04T01:38:53;20.40;99.90
63960;DHT22;50136;51.374;0.096;2022-08-04T01:48:55;20.30;99.90
63960;DHT22;50136;51.374;0.096;2022-08-04T01:59:02;20.30;99.80
63960;DHT22;50136;51.374;0.096;2022-08-04T02:09:11;20.20;98.80
63960;DHT22;50136;51.374;0.096;2022-08-04T02:19:23;20.20;98.80
63960;DHT22;50136;51.374;0.096;2022-08-04T02:29:34;20.20;98.80
63960;DHT22;50136;51.374;0.096;2022-08-04T02:39:41;20.20;99.30
63960;DHT22;50136;51.374;0.096;2022-08-04T02:49:51;20.20;99.40
63960;DHT22;50136;51.374;0.096;2022-08-04T03:00:04;20.10;99.40
63960;DHT22;50136;51.374;0.096;2022-08-04T03:21:12;20.00;98.70
63960;DHT22;50136;51.374;0.096;2022-08-04T03:31:45;19.90;97.80
63960;DHT22;50136;51.374;0.096;2022-08-04T03:52:36;19.50;97.30
63960;DHT22;50136;51.374;0.096;2022-08-04T04:03:29;19.40;97.30
63960;DHT22;50136;51.374;0.096;2022-08-04T04:24:34;19.20;97.40
63960;DHT22;50136;51.374;0.096;2022-08-04T04:34:49;19.20;97.40
63960;DHT22;50136;51.374;0.096;2022-08-04T04:45:23;19.00;97.90
63960;DHT22;50136;51.374;0.096;2022-08-04T04:55:29;18.80;98.40
63960;DHT22;50136;51.374;0.096;2022-08-04T05:05:59;18.60;98.90
63960;DHT22;50136;51.374;0.096;2022-08-04T05:16:13;18.40;99.70
63960;DHT22;50136;51.374;0.096;2022-08-04T05:26:24;18.50;99.70
63960;DHT22;50136;51.374;0.096;2022-08-04T05:36:32;18.60;99.80
63960;DHT22;50136;51.374;0.096;2022-08-04T05:46:46;18.80;99.60
63960;DHT22;50136;51.374;0.096;2022-08-04T05:56:56;18.90;99.00
63960;DHT22;50136;51.374;0.096;2022-08-04T06:07:00;19.10;98.80
63960;DHT22;50136;51.374;0.096;2022-08-04T06:17:04;19.20;98.50
63960;DHT22;50136;51.374;0.096;2022-08-04T06:27:29;19.00;99.00
63960;DHT22;50136;51.374;0.096;2022-08-04T06:37:33;18.90;99.90
63960;DHT22;50136;51.374;0.096;2022-08-04T06:47:48;18.80;99.80
63960;DHT22;50136;51.374;0.096;2022-08-04T06:57:51;18.90;99.50
63960;DHT22;50136;51.374;0.096;2022-08-04T07:07:55;19.00;99.20
63960;DHT22;50136;51.374;0.096;2022-08-04T07:17:59;19.10;98.80
63960;DHT22;50136;51.374;0.096;2022-08-04T07:28:03;19.10;99.00
63960;DHT22;50136;51.374;0.096;2022-08-04T07:38:05;19.30;98.60
63960;DHT22;50136;51.374;0.096;2022-08-04T07:48:11;19.50;98.70
63960;DHT22;50136;51.374;0.096;2022-08-04T07:58:14;19.60;98.70
63960;DHT22;50136;51.374;0.096;2022-08-04T08:08:17;19.90;98.10
63960;DHT22;50136;51.374;0.096;2022-08-04T08:18:19;20.30;97.70
63960;DHT22;50136;51.374;0.096;2022-08-04T08:28:22;21.10;97.50
63960;DHT22;50136;51.374;0.096;2022-08-04T08:38:36;22.30;94.40
63960;DHT22;50136;51.374;0.096;2022-08-04T08:49:06;24.60;91.00
63960;DHT22;50136;51.374;0.096;2022-08-04T08:59:49;25.90;89.00
63960;DHT22;50136;51.374;0.096;2022-08-04T09:10:11;27.00;84.10
63960;DHT22;50136;51.374;0.096;2022-08-04T09:20:20;27.50;82.60
63960;DHT22;50136;51.374;0.096;2022-08-04T09:30:30;28.60;83.50
63960;DHT22;50136;51.374;0.096;2022-08-04T09:40:39;28.70;78.10
63960;DHT22;50136;51.374;0.096;2022-08-04T09:51:07;25.90;83.50
63960;DHT22;50136;51.374;0.096;2022-08-04T10:01:15;28.40;79.90
63960;DHT22;50136;51.374;0.096;2022-08-04T10:11:49;25.90;81.50
63960;DHT22;50136;51.374;0.096;2022-08-04T10:22:08;26.60;80.00
63960;DHT22;50136;51.374;0.096;2022-08-04T10:32:41;26.20;80.80
63960;DHT22;50136;51.374;0.096;2022-08-04T10:42:55;28.40;78.30
63960;DHT22;50136;51.374;0.096;2022-08-04T10:53:04;26.30;80.60
63960;DHT22;50136;51.374;0.096;2022-08-04T11:03:16;25.20;81.60
63960;DHT22;50136;51.374;0.096;2022-08-04T11:13:22;25.30;82.00
63960;DHT22;50136;51.374;0.096;2022-08-04T11:23:34;26.30;80.30
63960;DHT22;50136;51.374;0.096;2022-08-04T11:33:45;27.30;77.70
63960;DHT22;50136;51.374;0.096;2022-08-04T11:43:53;27.30;77.20
63960;DHT22;50136;51.374;0.096;2022-08-04T11:54:06;26.90;76.30
63960;DHT22;50136;51.374;0.096;2022-08-04T12:04:15;27.20;77.00
63960;DHT22;50136;51.374;0.096;2022-08-04T12:14:27;26.50;76.60
63960;DHT22;50136;51.374;0.096;2022-08-04T12:24:34;26.40;76.70
63960;DHT22;50136;51.374;0.096;2022-08-04T12:34:42;25.50;76.20
63960;DHT22;50136;51.374;0.096;2022-08-04T12:44:47;25.60;76.90
63960;DHT22;50136;51.374;0.096;2022-08-04T12:54:53;26.50;76.30
63960;DHT22;50136;51.374;0.096;2022-08-04T13:04:59;26.20;74.90
63960;DHT22;50136;51.374;0.096;2022-08-04T13:15:10;27.20;75.30
63960;DHT22;50136;51.374;0.096;2022-08-04T13:25:19;27.10;75.20
63960;DHT22;50136;51.374;0.096;2022-08-04T13:35:44;27.40;74.40
63960;DHT22;50136;51.374;0.096;2022-08-04T13:45:59;27.40;70.10
63960;DHT22;50136;51.374;0.096;2022-08-04T13:56:06;27.40;71.60
63960;DHT22;50136;51.374;0.096;2022-08-04T14:06:13;27.20;71.10
63960;DHT22;50136;51.374;0.096;2022-08-04T14:16:19;26.70;74.50
63960;DHT22;50136;51.374;0.096;2022-08-04T14:26:24;26.80;73.30
63960;DHT22;50136;51.374;0.096;2022-08-04T14:36:42;26.50;74.60
63960;DHT22;50136;51.374;0.096;2022-08-04T14:47:05;27.30;72.30
63960;DHT22;50136;51.374;0.096;2022-08-04T14:57:15;27.30;72.50
63960;DHT22;50136;51.374;0.096;2022-08-04T15:07:17;26.70;74.30
63960;DHT22;50136;51.374;0.096;2022-08-04T15:17:21;26.90;74.20
63960;DHT22;50136;51.374;0.096;2022-08-04T15:27:33;27.10;73.30
63960;DHT22;50136;51.374;0.096;2022-08-04T15:37:51;26.10;73.80
63960;DHT22;50136;51.374;0.096;2022-08-04T15:58:48;25.40;73.00
63960;DHT22;50136;51.374;0.096;2022-08-04T16:08:57;25.60;72.60
63960;DHT22;50136;51.374;0.096;2022-08-04T16:19:05;25.50;73.70
63960;DHT22;50136;51.374;0.096;2022-08-04T16:39:25;25.10;73.80
63960;DHT22;50136;51.374;0.096;2022-08-04T16:49:29;25.10;74.50
63960;DHT22;50136;51.374;0.096;2022-08-04T16:59:32;24.80;75.60
63960;DHT22;50136;51.374;0.096;2022-08-04T17:09:35;24.40;76.00
63960;DHT22;50136;51.374;0.096;2022-08-04T17:19:38;24.30;75.80
63960;DHT22;50136;51.374;0.096;2022-08-04T17:29:51;24.20;75.90
63960;DHT22;50136;51.374;0.096;2022-08-04T17:40:14;23.90;75.90
63960;DHT22;50136;51.374;0.096;2022-08-04T17:50:27;23.80;76.00
63960;DHT22;50136;51.374;0.096;2022-08-04T18:00:35;23.70;76.40
63960;DHT22;50136;51.374;0.096;2022-08-04T18:10:42;23.50;75.50
63960;DHT22;50136;51.374;0.096;2022-08-04T18:20:58;23.50;76.10
63960;DHT22;50136;51.374;0.096;2022-08-04T18:31:05;23.30;75.90
63960;DHT22;50136;51.374;0.096;2022-08-04T18:41:09;23.10;75.80
63960;DHT22;50136;51.374;0.096;2022-08-04T18:51:13;22.90;75.80
63960;DHT22;50136;51.374;0.096;2022-08-04T19:01:26;22.70;75.40
63960;DHT22;50136;51.374;0.096;2022-08-04T19:11:48;22.50;74.60
63960;DHT22;50136;51.374;0.096;2022-08-04T19:21:57;22.30;75.00
63960;DHT22;50136;51.374;0.096;2022-08-04T19:32:08;22.20;75.50
63960;DHT22;50136;51.374;0.096;2022-08-04T19:42:31;22.00;74.30
63960;DHT22;50136;51.374;0.096;2022-08-04T19:52:33;21.90;74.60
63960;DHT22;50136;51.374;0.096;2022-08-04T20:02:38;21.70;73.90
63960;DHT22;50136;51.374;0.096;2022-08-04T20:12:42;21.50;73.70
63960;DHT22;50136;51.374;0.096;2022-08-04T20:22:57;21.40;73.80
63960;DHT22;50136;51.374;0.096;2022-08-04T20:33:00;21.30;73.80
63960;DHT22;50136;51.374;0.096;2022-08-04T20:43:18;21.30;73.80
63960;DHT22;50136;51.374;0.096;2022-08-04T20:53:21;21.20;73.20
63960;DHT22;50136;51.374;0.096;2022-08-04T21:03:44;21.20;73.90
63960;DHT22;50136;51.374;0.096;2022-08-04T21:14:06;21.20;74.10
63960;DHT22;50136;51.374;0.096;2022-08-04T21:24:14;20.90;74.50
63960;DHT22;50136;51.374;0.096;2022-08-04T21:34:16;20.80;74.50
63960;DHT22;50136;51.374;0.096;2022-08-04T21:44:39;20.70;74.80
63960;DHT22;50136;51.374;0.096;2022-08-04T21:54:42;20.50;74.80
63960;DHT22;50136;51.374;0.096;2022-08-04T22:04:47;20.40;75.20
63960;DHT22;50136;51.374;0.096;2022-08-04T22:14:49;20.30;75.30
63960;DHT22;50136;51.374;0.096;2022-08-04T22:25:03;20.30;75.10
63960;DHT22;50136;51.374;0.096;2022-08-04T22:35:15;20.10;75.20
63960;DHT22;50136;51.374;0.096;2022-08-04T22:45:43;19.90;75.70
63960;DHT22;50136;51.374;0.096;2022-08-04T22:55:46;19.80;76.30
63960;DHT22;50136;51.374;0.096;2022-08-04T23:06:09;19.60;76.20
63960;DHT22;50136;51.374;0.096;2022-08-04T23:16:12;19.50;76.10
63960;DHT22;50136;51.374;0.096;2022-08-04T23:26:16;19.50;76.40
63960;DHT22;50136;51.374;0.096;2022-08-04T23:36:19;19.30;76.80
63960;DHT22;50136;51.374;0.096;2022-08-04T23:46:33;19.10;77.10
63960;DHT22;50136;51.374;0.096;2022-08-04T23:56:35;19.00;77.40
